Time,TemperatureF,DewpointF,PressureIn,WindDirection,WindDirectionDegrees,WindSpeedMPH,WindSpeedGustMPH,Humidity,HourlyPrecipIn,Conditions,Clouds,dailyrainin,SoftwareType,DateUTC
2013-03-15 00:00:00,34.5,19.2,30.11,SSW,198,4.9,6.3,53,0.00,,---,0.00,VWS V13.01,2013-03-15 04:00:00,
2013-03-15 00:05:00,34.3,19.0,30.11,SSW,193,6.7,6.7,53,0.00,,---,0.00,VWS V13.01,2013-03-15 04:05:00,
2013-03-15 00:10:00,34.3,19.0,30.08,SSW,199,3.6,4.9,53,0.00,,---,0.00,VWS V13.01,2013-03-15 04:10:00,
2013-03-15 00:15:00,34.3,19.0,30.08,SSE,164,6.7,6.7,53,0.00,,---,0.00,VWS V13.01,2013-03-15 04:15:00,
2013-03-15 00:20:00,34.3,19.4,30.08,SSW,194,5.4,5.8,54,0.00,,---,0.00,VWS V13.01,2013-03-15 04:20:00,
2013-03-15 00:25:00,34.3,19.4,30.08,SSW,202,6.3,6.7,54,0.00,,---,0.00,VWS V13.01,2013-03-15 04:25:00,
2013-03-15 00:30:00,34.3,19.9,30.08,SW,221,4.5,6.7,55,0.00,,---,0.00,VWS V13.01,2013-03-15 04:30:00,
2013-03-15 00:35:00,34.0,19.5,30.08,SSW,196,4.0,6.3,55,0.00,,---,0.00,VWS V13.01,2013-03-15 04:35:00,
2013-03-15 00:40:00,34.0,20.0,30.08,South,180,5.4,6.7,56,0.00,,---,0.00,VWS V13.01,2013-03-15 04:40:00,
2013-03-15 00:45:00,34.0,20.0,30.08,SSW,199,4.0,6.9,56,0.00,,---,0.00,VWS V13.01,2013-03-15 04:45:00,
2013-03-15 00:50:00,33.8,20.2,30.08,SW,224,4.5,7.8,57,0.00,,---,0.00,VWS V13.01,2013-03-15 04:50:00,
2013-03-15 00:55:00,33.8,21.0,30.08,SSW,212,5.8,8.3,59,0.00,,---,0.00,VWS V13.01,2013-03-15 04:55:00,
2013-03-15 01:00:00,33.8,21.8,30.08,SSW,192,6.9,8.3,61,0.00,,---,0.00,VWS V13.01,2013-03-15 05:00:00,
2013-03-15 01:05:00,33.8,22.5,30.08,South,184,10.1,10.1,63,0.00,,---,0.00,VWS V13.01,2013-03-15 05:05:00,
2013-03-15 01:10:00,33.8,23.7,30.08,South,184,5.4,9.2,66,0.00,,---,0.00,VWS V13.01,2013-03-15 05:10:00,
2013-03-15 01:15:00,33.8,24.0,30.08,SSE,168,6.3,8.3,67,0.00,,---,0.00,VWS V13.01,2013-03-15 05:15:00,
2013-03-15 01:20:00,33.6,24.2,30.08,South,183,5.4,9.2,68,0.00,,---,0.00,VWS V13.01,2013-03-15 05:20:00,
2013-03-15 01:25:00,33.6,24.2,30.08,South,181,6.9,8.7,68,0.00,,---,0.00,VWS V13.01,2013-03-15 05:25:00,
2013-03-15 01:30:00,33.4,24.4,30.08,SSW,192,8.3,8.3,69,0.00,,---,0.00,VWS V13.01,2013-03-15 05:30:00,
2013-03-15 01:35:00,33.3,24.5,30.08,South,174,6.9,7.4,70,0.00,,---,0.00,VWS V13.01,2013-03-15 05:35:00,
2013-03-15 01:40:00,33.3,24.5,30.08,SW,228,4.0,6.9,70,0.00,,---,0.00,VWS V13.01,2013-03-15 05:40:00,
2013-03-15 01:45:00,33.4,25.1,30.08,SW,227,6.7,6.9,71,0.00,,---,0.00,VWS V13.01,2013-03-15 05:45:00,
2013-03-15 01:50:00,33.4,25.4,30.08,SSE,160,6.7,7.4,72,0.00,,---,0.00,VWS V13.01,2013-03-15 05:50:00,
2013-03-15 01:55:00,33.4,25.4,30.08,SSW,192,4.5,6.9,72,0.00,,---,0.00,VWS V13.01,2013-03-15 05:55:00,
2013-03-15 02:00:00,33.6,25.9,30.08,SSW,196,8.3,8.3,73,0.00,,---,0.00,VWS V13.01,2013-03-15 06:00:00,
2013-03-15 02:05:00,33.8,26.1,30.08,SW,223,5.8,11.0,73,0.00,,---,0.00,VWS V13.01,2013-03-15 06:05:00,
2013-03-15 02:11:00,33.8,26.4,30.05,SSW,204,10.1,11.2,74,0.00,,---,0.00,VWS V13.01,2013-03-15 06:11:00,
2013-03-15 02:16:00,33.8,26.7,30.05,SSW,206,7.4,9.2,75,0.00,,---,0.00,VWS V13.01,2013-03-15 06:16:00,
2013-03-15 02:21:00,34.0,27.2,30.05,SSW,204,6.7,7.4,76,0.00,,---,0.00,VWS V13.01,2013-03-15 06:21:00,
2013-03-15 02:26:00,34.2,27.4,30.05,South,187,8.7,11.2,76,0.00,,---,0.00,VWS V13.01,2013-03-15 06:26:00,
2013-03-15 02:31:00,34.2,27.7,30.05,South,177,10.1,10.1,77,0.00,,---,0.00,VWS V13.01,2013-03-15 06:31:00,
2013-03-15 02:36:00,34.2,27.7,30.05,SSE,161,8.3,9.6,77,0.00,,---,0.00,VWS V13.01,2013-03-15 06:36:00,
2013-03-15 02:41:00,34.3,27.9,30.05,SSW,202,7.8,8.3,77,0.00,,---,0.00,VWS V13.01,2013-03-15 06:41:00,
2013-03-15 02:46:00,34.3,27.9,30.05,South,180,8.3,11.2,77,0.00,,---,0.00,VWS V13.01,2013-03-15 06:46:00,
2013-03-15 02:51:00,34.3,28.2,30.05,SSW,204,5.8,11.0,78,0.00,,---,0.00,VWS V13.01,2013-03-15 06:51:00,
2013-03-15 02:56:00,34.3,28.2,30.05,South,183,4.5,8.3,78,0.00,,---,0.00,VWS V13.01,2013-03-15 06:56:00,
2013-03-15 03:01:00,34.3,28.2,30.05,South,186,7.8,8.3,78,0.00,,---,0.00,VWS V13.01,2013-03-15 07:01:00,
2013-03-15 03:06:00,34.5,28.4,30.05,SSE,153,6.9,8.7,78,0.00,,---,0.00,VWS V13.01,2013-03-15 07:06:00,
2013-03-15 03:11:00,34.3,28.2,30.02,SSW,196,6.7,9.2,78,0.00,,---,0.00,VWS V13.01,2013-03-15 07:11:00,
2013-03-15 03:16:00,34.3,28.2,30.02,South,176,8.3,8.3,78,0.00,,---,0.00,VWS V13.01,2013-03-15 07:16:00,
2013-03-15 03:21:00,34.3,28.2,30.02,SSW,195,7.8,9.2,78,0.00,,---,0.00,VWS V13.01,2013-03-15 07:21:00,
2013-03-15 03:26:00,34.3,28.2,30.02,SSW,193,5.8,7.8,78,0.00,,---,0.00,VWS V13.01,2013-03-15 07:26:00,
2013-03-15 03:31:00,34.3,28.2,30.02,SSW,198,8.3,8.7,78,0.00,,---,0.00,VWS V13.01,2013-03-15 07:31:00,
2013-03-15 03:36:00,34.3,28.2,30.02,SSE,155,5.4,11.0,78,0.00,,---,0.00,VWS V13.01,2013-03-15 07:36:00,
2013-03-15 03:41:00,34.3,28.2,30.02,SSW,196,6.3,9.6,78,0.00,,---,0.00,VWS V13.01,2013-03-15 07:41:00,
2013-03-15 03:46:00,34.3,28.2,30.02,SW,216,4.0,6.7,78,0.00,,---,0.00,VWS V13.01,2013-03-15 07:46:00,
2013-03-15 03:51:00,34.2,28.0,30.02,South,175,6.9,9.2,78,0.00,,---,0.00,VWS V13.01,2013-03-15 07:51:00,
2013-03-15 03:56:00,34.2,28.3,30.02,South,180,8.3,8.7,79,0.00,,---,0.00,VWS V13.01,2013-03-15 07:56:00,
2013-03-15 04:01:00,34.0,28.2,30.02,SW,214,5.4,8.3,79,0.00,,---,0.00,VWS V13.01,2013-03-15 08:01:00,
2013-03-15 04:06:00,34.0,28.2,30.02,SW,229,6.7,7.4,79,0.00,,---,0.00,VWS V13.01,2013-03-15 08:06:00,
2013-03-15 04:11:00,33.8,28.0,30.02,SSW,197,7.8,7.8,79,0.00,,---,0.00,VWS V13.01,2013-03-15 08:11:00,
2013-03-15 04:16:00,33.8,28.0,30.02,SW,222,4.5,6.3,79,0.00,,---,0.00,VWS V13.01,2013-03-15 08:16:00,
2013-03-15 04:21:00,33.8,28.0,30.02,SW,234,5.8,9.2,79,0.00,,---,0.00,VWS V13.01,2013-03-15 08:21:00,
2013-03-15 04:26:00,33.8,28.0,30.02,South,181,5.8,6.7,79,0.00,,---,0.00,VWS V13.01,2013-03-15 08:26:00,
2013-03-15 04:31:00,33.8,28.0,30.02,SSW,195,7.4,8.3,79,0.00,,---,0.00,VWS V13.01,2013-03-15 08:31:00,
2013-03-15 04:36:00,33.8,28.0,30.02,SSW,201,4.9,6.9,79,0.00,,---,0.00,VWS V13.01,2013-03-15 08:36:00,
2013-03-15 04:41:00,33.6,27.8,29.99,South,184,5.8,7.4,79,0.00,,---,0.00,VWS V13.01,2013-03-15 08:41:00,
2013-03-15 04:46:00,33.6,27.8,29.99,South,176,7.8,8.7,79,0.00,,---,0.00,VWS V13.01,2013-03-15 08:46:00,
2013-03-15 04:51:00,33.6,27.8,29.99,South,177,5.4,6.9,79,0.00,,---,0.00,VWS V13.01,2013-03-15 08:51:00,
2013-03-15 04:56:00,33.6,28.1,29.99,SSW,200,6.3,7.4,80,0.00,,---,0.00,VWS V13.01,2013-03-15 08:56:00,
2013-03-15 05:01:00,33.6,28.1,29.99,South,179,6.9,6.9,80,0.00,,---,0.00,VWS V13.01,2013-03-15 09:01:00,
2013-03-15 05:06:00,33.6,28.1,29.99,SSW,213,5.4,5.8,80,0.00,,---,0.00,VWS V13.01,2013-03-15 09:06:00,
2013-03-15 05:11:00,33.6,28.1,29.99,SSW,210,4.5,5.8,80,0.00,,---,0.00,VWS V13.01,2013-03-15 09:11:00,
2013-03-15 05:16:00,33.6,28.1,29.99,SSW,200,4.9,6.7,80,0.00,,---,0.00,VWS V13.01,2013-03-15 09:16:00,
2013-03-15 05:21:00,33.6,28.1,29.99,SSW,201,6.3,6.7,80,0.00,,---,0.00,VWS V13.01,2013-03-15 09:21:00,
2013-03-15 05:26:00,33.6,28.1,29.99,South,187,4.0,5.8,80,0.00,,---,0.00,VWS V13.01,2013-03-15 09:26:00,
2013-03-15 05:31:00,33.6,28.1,29.99,SSW,199,4.9,5.4,80,0.00,,---,0.00,VWS V13.01,2013-03-15 09:31:00,
2013-03-15 05:36:00,33.4,27.6,29.99,South,178,6.3,6.3,79,0.00,,---,0.00,VWS V13.01,2013-03-15 09:36:00,
2013-03-15 05:41:00,33.4,27.6,29.99,South,179,4.0,7.4,79,0.00,,---,0.00,VWS V13.01,2013-03-15 09:41:00,
2013-03-15 05:46:00,33.3,27.5,29.99,SSW,206,2.7,5.8,79,0.00,,---,0.00,VWS V13.01,2013-03-15 09:46:00,
2013-03-15 05:51:00,33.3,27.5,29.99,SSW,193,4.9,4.9,79,0.00,,---,0.00,VWS V13.01,2013-03-15 09:51:00,
2013-03-15 05:56:00,33.3,27.5,29.96,SSW,197,3.6,4.5,79,0.00,,---,0.00,VWS V13.01,2013-03-15 09:56:00,
2013-03-15 06:01:00,33.4,27.6,29.96,South,188,2.7,3.6,79,0.00,,---,0.00,VWS V13.01,2013-03-15 10:01:00,
2013-03-15 06:06:00,33.6,27.8,29.96,South,189,4.9,4.9,79,0.00,,---,0.00,VWS V13.01,2013-03-15 10:06:00,
2013-03-15 06:11:00,33.6,27.8,29.96,SSW,193,0.0,0.0,79,0.00,,---,0.00,VWS V13.01,2013-03-15 10:11:00,
2013-03-15 06:16:00,33.3,27.1,29.96,SSW,206,4.0,4.0,78,0.00,,---,0.00,VWS V13.01,2013-03-15 10:16:00,
2013-03-15 06:21:00,33.3,27.1,29.96,South,180,4.9,5.4,78,0.00,,---,0.00,VWS V13.01,2013-03-15 10:21:00,
2013-03-15 06:26:00,33.3,27.1,29.96,SSW,197,5.4,5.4,78,0.00,,---,0.00,VWS V13.01,2013-03-15 10:26:00,
2013-03-15 06:31:00,33.3,27.1,29.96,SSW,197,4.5,5.4,78,0.00,,---,0.00,VWS V13.01,2013-03-15 10:31:00,
2013-03-15 06:36:00,32.9,26.8,29.96,SSW,195,5.8,5.8,78,0.00,,---,0.00,VWS V13.01,2013-03-15 10:36:00,
2013-03-15 06:42:00,32.9,26.8,29.96,South,189,4.5,5.8,78,0.00,,---,0.00,VWS V13.01,2013-03-15 10:42:00,
2013-03-15 06:47:00,32.9,26.8,29.96,SSW,192,4.0,4.9,78,0.00,,---,0.00,VWS V13.01,2013-03-15 10:47:00,
2013-03-15 06:52:00,32.9,26.8,29.96,SSW,198,4.5,5.8,78,0.00,,---,0.00,VWS V13.01,2013-03-15 10:52:00,
2013-03-15 06:57:00,32.7,26.6,29.96,SSW,194,6.3,6.7,78,0.00,,---,0.00,VWS V13.01,2013-03-15 10:57:00,
2013-03-15 07:02:00,32.7,26.6,29.96,SSW,196,5.4,6.3,78,0.00,,---,0.00,VWS V13.01,2013-03-15 11:02:00,
2013-03-15 07:07:00,32.7,26.6,29.96,SSW,195,3.6,4.5,78,0.00,,---,0.00,VWS V13.01,2013-03-15 11:07:00,
2013-03-15 07:12:00,32.7,26.6,29.93,SSW,195,4.5,4.9,78,0.00,,---,0.00,VWS V13.01,2013-03-15 11:12:00,
2013-03-15 07:17:00,32.9,26.8,29.93,South,191,5.4,5.8,78,0.00,,---,0.00,VWS V13.01,2013-03-15 11:17:00,
2013-03-15 07:22:00,32.7,26.6,29.93,South,190,5.4,6.3,78,0.00,,---,0.00,VWS V13.01,2013-03-15 11:22:00,
2013-03-15 07:27:00,32.7,26.6,29.93,South,184,6.3,6.9,78,0.00,,---,0.00,VWS V13.01,2013-03-15 11:27:00,
2013-03-15 07:32:00,32.7,26.6,29.93,SW,221,6.3,6.3,78,0.00,,---,0.00,VWS V13.01,2013-03-15 11:32:00,
2013-03-15 07:37:00,32.9,26.8,29.93,SSW,200,5.4,6.3,78,0.00,,---,0.00,VWS V13.01,2013-03-15 11:37:00,
2013-03-15 07:42:00,32.7,26.6,29.96,SW,220,5.4,6.7,78,0.00,,---,0.00,VWS V13.01,2013-03-15 11:42:00,
2013-03-15 07:47:00,32.7,26.6,29.96,SSW,199,5.4,5.8,78,0.00,,---,0.00,VWS V13.01,2013-03-15 11:47:00,
2013-03-15 07:52:00,32.7,26.9,29.96,SSW,200,5.4,7.8,79,0.00,,---,0.00,VWS V13.01,2013-03-15 11:52:00,
2013-03-15 07:57:00,32.9,27.1,29.96,SSW,213,6.7,6.7,79,0.00,,---,0.00,VWS V13.01,2013-03-15 11:57:00,
2013-03-15 08:02:00,32.9,26.8,29.96,SW,219,4.9,4.9,78,0.00,,---,0.00,VWS V13.01,2013-03-15 12:02:00,
2013-03-15 08:07:00,33.1,27.3,29.96,South,186,6.7,6.9,79,0.00,,---,0.00,VWS V13.01,2013-03-15 12:07:00,
2013-03-15 08:12:00,33.1,27.3,29.93,South,174,8.7,8.7,79,0.00,,---,0.00,VWS V13.01,2013-03-15 12:12:00,
2013-03-15 08:17:00,33.1,27.3,29.93,South,174,6.9,7.4,79,0.00,,---,0.00,VWS V13.01,2013-03-15 12:17:00,
2013-03-15 08:22:00,33.3,27.5,29.93,SSW,199,6.7,7.8,79,0.00,,---,0.00,VWS V13.01,2013-03-15 12:22:00,
2013-03-15 08:27:00,33.1,27.3,29.93,SW,219,7.4,7.8,79,0.00,,---,0.00,VWS V13.01,2013-03-15 12:27:00,
2013-03-15 08:32:00,33.3,27.5,29.93,SSW,207,5.8,6.3,79,0.00,,---,0.00,VWS V13.01,2013-03-15 12:32:00,
2013-03-15 08:37:00,33.3,27.5,29.93,SSW,204,4.5,6.3,79,0.00,,---,0.00,VWS V13.01,2013-03-15 12:37:00,
2013-03-15 08:42:00,33.4,27.6,29.93,SW,225,6.3,6.3,79,0.00,,---,0.00,VWS V13.01,2013-03-15 12:42:00,
2013-03-15 08:47:00,33.6,27.8,29.93,SSW,195,5.4,6.9,79,0.00,,---,0.00,VWS V13.01,2013-03-15 12:47:00,
2013-03-15 08:52:00,33.6,27.8,29.93,South,182,6.7,6.7,79,0.00,,---,0.00,VWS V13.01,2013-03-15 12:52:00,
2013-03-15 08:57:00,33.8,27.7,29.93,South,172,6.3,6.3,78,0.00,,---,0.00,VWS V13.01,2013-03-15 12:57:00,
2013-03-15 09:02:00,33.8,27.7,29.93,SSW,211,3.6,6.3,78,0.00,,---,0.00,VWS V13.01,2013-03-15 13:02:00,
2013-03-15 09:07:00,34.0,27.9,29.93,SSW,200,4.0,6.9,78,0.00,,---,0.00,VWS V13.01,2013-03-15 13:07:00,
2013-03-15 09:12:00,34.0,27.9,29.93,South,181,5.4,7.4,78,0.00,,---,0.00,VWS V13.01,2013-03-15 13:12:00,
2013-03-15 09:17:00,34.2,27.7,29.93,South,184,6.3,7.8,77,0.00,,---,0.00,VWS V13.01,2013-03-15 13:17:00,
2013-03-15 09:22:00,34.3,27.9,29.93,South,174,6.9,8.3,77,0.00,,---,0.00,VWS V13.01,2013-03-15 13:22:00,
2013-03-15 09:28:00,34.5,28.1,29.93,SSW,204,4.5,6.3,77,0.00,,---,0.00,VWS V13.01,2013-03-15 13:28:00,
2013-03-15 09:33:00,34.5,27.8,29.93,SW,220,4.5,6.7,76,0.00,,---,0.00,VWS V13.01,2013-03-15 13:33:00,
2013-03-15 09:38:00,34.5,27.4,29.93,South,191,8.7,10.5,75,0.00,,---,0.00,VWS V13.01,2013-03-15 13:38:00,
2013-03-15 09:43:00,34.5,27.4,29.93,SW,232,6.9,9.2,75,0.00,,---,0.00,VWS V13.01,2013-03-15 13:43:00,
2013-03-15 09:48:00,34.9,27.8,29.93,SSW,207,5.8,7.4,75,0.00,,---,0.00,VWS V13.01,2013-03-15 13:48:00,
2013-03-15 09:53:00,35.1,27.6,29.93,South,183,5.8,7.8,74,0.00,,---,0.00,VWS V13.01,2013-03-15 13:53:00,
2013-03-15 09:58:00,35.2,27.8,29.93,SSW,192,6.9,8.3,74,0.00,,---,0.00,VWS V13.01,2013-03-15 13:58:00,
2013-03-15 10:03:00,35.6,28.1,29.93,SW,235,6.3,9.6,74,0.00,,---,0.00,VWS V13.01,2013-03-15 14:03:00,
2013-03-15 10:08:00,35.4,27.3,29.93,SSW,210,7.4,7.4,72,0.00,,---,0.00,VWS V13.01,2013-03-15 14:08:00,
2013-03-15 10:13:00,35.6,27.5,29.93,South,173,6.3,8.3,72,0.00,,---,0.00,VWS V13.01,2013-03-15 14:13:00,
2013-03-15 10:18:00,35.8,27.6,29.93,South,186,4.5,6.7,72,0.00,,---,0.00,VWS V13.01,2013-03-15 14:18:00,
2013-03-15 10:23:00,36.0,27.5,29.93,SSW,213,6.3,7.4,71,0.00,,---,0.00,VWS V13.01,2013-03-15 14:23:00,
2013-03-15 10:28:00,36.3,27.8,29.93,SW,219,3.6,5.8,71,0.00,,---,0.00,VWS V13.01,2013-03-15 14:28:00,
2013-03-15 10:33:00,37.0,28.5,29.93,WSW,238,4.5,5.8,71,0.00,,---,0.00,VWS V13.01,2013-03-15 14:33:00,
2013-03-15 10:38:00,37.6,28.4,29.93,SSW,206,5.8,8.7,69,0.00,,---,0.00,VWS V13.01,2013-03-15 14:38:00,
2013-03-15 10:43:00,37.6,27.6,29.93,SSE,156,5.8,7.8,67,0.00,,---,0.00,VWS V13.01,2013-03-15 14:43:00,
2013-03-15 10:48:00,37.6,26.9,29.93,South,174,2.7,5.8,65,0.00,,---,0.00,VWS V13.01,2013-03-15 14:48:00,
2013-03-15 10:53:00,38.3,26.8,29.93,SSW,207,4.9,5.8,63,0.00,,---,0.00,VWS V13.01,2013-03-15 14:53:00,
2013-03-15 10:58:00,38.3,26.0,29.93,SSW,192,8.3,11.0,61,0.00,,---,0.00,VWS V13.01,2013-03-15 14:58:00,
2013-03-15 11:03:00,38.3,25.6,29.93,South,179,4.9,7.4,60,0.00,,---,0.00,VWS V13.01,2013-03-15 15:03:00,
2013-03-15 11:08:00,39.0,27.1,29.93,SSW,192,6.7,7.8,62,0.00,,---,0.00,VWS V13.01,2013-03-15 15:08:00,
2013-03-15 11:13:00,39.2,26.5,29.93,SW,230,6.3,6.7,60,0.00,,---,0.00,VWS V13.01,2013-03-15 15:13:00,
2013-03-15 11:18:00,39.7,27.0,29.93,SSW,198,4.0,6.3,60,0.00,,---,0.00,VWS V13.01,2013-03-15 15:18:00,
2013-03-15 11:23:00,40.1,27.4,29.93,SW,236,3.6,6.7,60,0.00,,---,0.00,VWS V13.01,2013-03-15 15:23:00,
2013-03-15 11:28:00,40.5,26.0,29.93,SSW,205,4.5,5.8,56,0.00,,---,0.00,VWS V13.01,2013-03-15 15:28:00,
2013-03-15 11:33:00,41.0,26.5,29.93,WSW,251,4.9,4.9,56,0.00,,---,0.00,VWS V13.01,2013-03-15 15:33:00,
2013-03-15 11:38:00,41.9,27.4,29.93,SW,232,2.7,4.0,56,0.00,,---,0.00,VWS V13.01,2013-03-15 15:38:00,
2013-03-15 11:43:00,42.3,26.8,29.93,SW,226,6.3,6.3,54,0.00,,---,0.00,VWS V13.01,2013-03-15 15:43:00,
2013-03-15 11:48:00,42.3,25.9,29.93,SW,215,3.6,7.4,52,0.00,,---,0.00,VWS V13.01,2013-03-15 15:48:00,
2013-03-15 11:53:00,41.9,25.1,29.93,South,186,4.5,10.5,51,0.00,,---,0.00,VWS V13.01,2013-03-15 15:53:00,
2013-03-15 11:58:00,41.7,25.9,29.91,SW,235,4.0,7.4,53,0.00,,---,0.00,VWS V13.01,2013-03-15 15:58:00,
2013-03-15 12:03:00,42.1,26.2,29.91,SW,234,7.4,10.1,53,0.00,,---,0.00,VWS V13.01,2013-03-15 16:03:00,
2013-03-15 12:08:00,42.3,26.4,29.91,SSW,194,4.0,6.3,53,0.00,,---,0.00,VWS V13.01,2013-03-15 16:08:00,
2013-03-15 12:13:00,42.8,26.4,29.91,SW,216,5.8,6.9,52,0.00,,---,0.00,VWS V13.01,2013-03-15 16:13:00,
2013-03-15 12:18:00,43.2,26.3,29.91,SW,221,2.7,4.0,51,0.00,,---,0.00,VWS V13.01,2013-03-15 16:18:00,
2013-03-15 12:23:00,43.7,26.3,29.91,SSW,204,7.4,11.0,50,0.00,,---,0.00,VWS V13.01,2013-03-15 16:23:00,
2013-03-15 12:28:00,44.1,26.1,29.91,SSW,201,4.5,7.4,49,0.00,,---,0.00,VWS V13.01,2013-03-15 16:28:00,
2013-03-15 12:33:00,44.6,26.6,29.91,South,188,6.9,6.9,49,0.00,,---,0.00,VWS V13.01,2013-03-15 16:33:00,
2013-03-15 12:38:00,44.6,26.1,29.91,South,169,5.8,6.7,48,0.00,,---,0.00,VWS V13.01,2013-03-15 16:38:00,
2013-03-15 12:43:00,45.0,26.5,29.91,SSW,203,2.7,5.4,48,0.00,,---,0.00,VWS V13.01,2013-03-15 16:43:00,
2013-03-15 12:48:00,45.3,26.8,29.91,South,189,5.8,9.2,48,0.00,,---,0.00,VWS V13.01,2013-03-15 16:48:00,
2013-03-15 12:53:00,45.7,27.1,29.91,South,181,4.5,6.3,48,0.00,,---,0.00,VWS V13.01,2013-03-15 16:53:00,
2013-03-15 12:58:00,46.2,27.1,29.91,South,170,10.1,10.1,47,0.00,,---,0.00,VWS V13.01,2013-03-15 16:58:00,
2013-03-15 13:03:00,46.4,27.3,29.91,South,178,4.9,6.3,47,0.00,,---,0.00,VWS V13.01,2013-03-15 17:03:00,
2013-03-15 13:08:00,46.9,27.3,29.91,South,188,4.9,5.8,46,0.00,,---,0.00,VWS V13.01,2013-03-15 17:08:00,
2013-03-15 13:13:00,47.3,27.0,29.88,SSW,211,3.6,4.9,45,0.00,,---,0.00,VWS V13.01,2013-03-15 17:13:00,
2013-03-15 13:18:00,47.8,27.0,29.88,South,182,5.4,7.8,44,0.00,,---,0.00,VWS V13.01,2013-03-15 17:18:00,
2013-03-15 13:23:00,48.2,27.3,29.88,WSW,243,4.0,4.5,44,0.00,,---,0.00,VWS V13.01,2013-03-15 17:23:00,
2013-03-15 13:28:00,48.9,26.9,29.88,South,179,6.9,7.4,42,0.00,,---,0.00,VWS V13.01,2013-03-15 17:28:00,
2013-03-15 13:33:00,49.3,26.6,29.88,SW,234,5.4,5.4,41,0.00,,---,0.00,VWS V13.01,2013-03-15 17:33:00,
2013-03-15 13:38:00,49.5,26.8,29.88,ESE,112,4.9,4.9,41,0.00,,---,0.00,VWS V13.01,2013-03-15 17:38:00,
2013-03-15 13:43:00,50.5,27.7,29.88,SSW,212,4.5,6.7,41,0.00,,---,0.00,VWS V13.01,2013-03-15 17:43:00,
2013-03-15 13:48:00,51.1,27.6,29.88,South,186,4.0,4.0,40,0.00,,---,0.00,VWS V13.01,2013-03-15 17:48:00,
2013-03-15 13:53:00,50.7,26.7,29.88,SW,219,7.4,8.7,39,0.00,,---,0.00,VWS V13.01,2013-03-15 17:53:00,
2013-03-15 13:58:00,50.7,27.3,29.88,SSW,194,6.7,6.9,40,0.00,,---,0.00,VWS V13.01,2013-03-15 17:58:00,
2013-03-15 14:03:00,50.0,26.6,29.88,South,189,7.4,9.2,40,0.00,,---,0.00,VWS V13.01,2013-03-15 18:03:00,
2013-03-15 14:08:00,49.8,27.1,29.88,SSW,193,3.1,3.6,41,0.00,,---,0.00,VWS V13.01,2013-03-15 18:08:00,
2013-03-15 14:13:00,49.6,26.9,29.88,South,171,8.7,10.5,41,0.00,,---,0.00,VWS V13.01,2013-03-15 18:13:00,
2013-03-15 14:18:00,49.8,27.7,29.88,South,186,4.0,4.5,42,0.00,,---,0.00,VWS V13.01,2013-03-15 18:18:00,
2013-03-15 14:23:00,50.4,27.0,29.88,SSW,211,4.9,8.3,40,0.00,,---,0.00,VWS V13.01,2013-03-15 18:23:00,
2013-03-15 14:28:00,50.2,26.8,29.88,WSW,241,6.3,6.3,40,0.00,,---,0.00,VWS V13.01,2013-03-15 18:28:00,
2013-03-15 14:33:00,50.2,26.8,29.88,South,191,6.3,8.3,40,0.00,,---,0.00,VWS V13.01,2013-03-15 18:33:00,
2013-03-15 14:38:00,49.8,25.9,29.88,South,173,6.9,6.9,39,0.00,,---,0.00,VWS V13.01,2013-03-15 18:38:00,
2013-03-15 14:43:00,49.6,26.3,29.88,WSW,255,4.0,4.9,40,0.00,,---,0.00,VWS V13.01,2013-03-15 18:43:00,
2013-03-15 14:48:00,49.6,26.3,29.88,SW,235,6.9,6.9,40,0.00,,---,0.00,VWS V13.01,2013-03-15 18:48:00,
2013-03-15 14:53:00,49.5,26.2,29.88,South,182,6.9,7.8,40,0.00,,---,0.00,VWS V13.01,2013-03-15 18:53:00,
2013-03-15 14:58:00,48.7,26.1,29.88,SW,216,4.0,4.0,41,0.00,,---,0.00,VWS V13.01,2013-03-15 18:58:00,
2013-03-15 15:03:00,48.2,26.2,29.88,SSW,207,5.8,10.1,42,0.00,,---,0.00,VWS V13.01,2013-03-15 19:03:00,
2013-03-15 15:08:00,48.0,26.6,29.88,SW,215,6.3,6.3,43,0.00,,---,0.00,VWS V13.01,2013-03-15 19:08:00,
2013-03-15 15:13:00,48.2,26.8,29.85,West,263,7.8,7.8,43,0.00,,---,0.00,VWS V13.01,2013-03-15 19:13:00,
2013-03-15 15:18:00,48.4,26.4,29.85,WSW,244,6.7,6.7,42,0.00,,---,0.00,VWS V13.01,2013-03-15 19:18:00,
2013-03-15 15:23:00,48.6,27.1,29.85,South,176,6.7,6.7,43,0.00,,---,0.00,VWS V13.01,2013-03-15 19:23:00,
2013-03-15 15:28:00,48.2,26.2,29.85,SW,225,8.3,8.3,42,0.00,,---,0.00,VWS V13.01,2013-03-15 19:28:00,
2013-03-15 15:33:00,47.8,26.4,29.85,SSW,202,5.8,6.9,43,0.00,,---,0.00,VWS V13.01,2013-03-15 19:33:00,
2013-03-15 15:38:00,47.8,27.0,29.85,South,191,10.1,11.6,44,0.00,,---,0.00,VWS V13.01,2013-03-15 19:38:00,
2013-03-15 15:43:00,47.5,26.7,29.85,SW,230,5.8,9.2,44,0.00,,---,0.00,VWS V13.01,2013-03-15 19:43:00,
2013-03-15 15:48:00,47.5,27.2,29.85,SSW,195,8.3,11.6,45,0.00,,---,0.00,VWS V13.01,2013-03-15 19:48:00,
2013-03-15 15:53:00,47.7,27.9,29.85,West,280,6.9,8.3,46,0.00,,---,0.00,VWS V13.01,2013-03-15 19:53:00,
2013-03-15 15:58:00,48.0,27.2,29.85,South,190,3.1,8.7,44,0.00,,---,0.00,VWS V13.01,2013-03-15 19:58:00,
2013-03-15 16:03:00,48.6,27.6,29.85,SW,231,4.9,6.7,44,0.00,,---,0.00,VWS V13.01,2013-03-15 20:03:00,
2013-03-15 16:08:00,48.9,28.0,29.85,SSW,199,4.9,7.8,44,0.00,,---,0.00,VWS V13.01,2013-03-15 20:08:00,
2013-03-15 16:13:00,48.9,27.4,29.85,West,260,4.5,5.8,43,0.00,,---,0.00,VWS V13.01,2013-03-15 20:13:00,
2013-03-15 16:18:00,48.7,27.8,29.85,South,169,4.9,6.9,44,0.00,,---,0.00,VWS V13.01,2013-03-15 20:18:00,
2013-03-15 16:23:00,48.7,27.8,29.85,SW,220,3.1,4.9,44,0.00,,---,0.00,VWS V13.01,2013-03-15 20:23:00,
2013-03-15 16:28:00,48.7,27.8,29.85,SW,218,4.5,8.3,44,0.00,,---,0.00,VWS V13.01,2013-03-15 20:28:00,
2013-03-15 16:33:00,48.6,27.6,29.85,WSW,237,9.2,9.2,44,0.00,,---,0.00,VWS V13.01,2013-03-15 20:33:00,
2013-03-15 16:38:00,48.2,27.3,29.85,SW,219,7.8,7.8,44,0.00,,---,0.00,VWS V13.01,2013-03-15 20:38:00,
2013-03-15 16:44:00,48.2,28.4,29.85,South,174,5.4,6.7,46,0.00,,---,0.00,VWS V13.01,2013-03-15 20:44:00,
2013-03-15 16:49:00,48.6,28.7,29.85,SW,216,3.6,4.5,46,0.00,,---,0.00,VWS V13.01,2013-03-15 20:49:00,
2013-03-15 16:54:00,48.6,28.2,29.85,South,181,7.8,10.1,45,0.00,,---,0.00,VWS V13.01,2013-03-15 20:54:00,
2013-03-15 16:59:00,48.4,28.0,29.85,SSW,195,6.7,11.0,45,0.00,,---,0.00,VWS V13.01,2013-03-15 20:59:00,
2013-03-15 17:04:00,48.2,28.4,29.85,SSW,212,7.4,7.8,46,0.00,,---,0.00,VWS V13.01,2013-03-15 21:04:00,
2013-03-15 17:09:00,48.0,28.8,29.85,SW,228,6.9,6.9,47,0.00,,---,0.00,VWS V13.01,2013-03-15 21:09:00,
2013-03-15 17:14:00,47.8,28.6,29.85,SW,220,3.6,7.4,47,0.00,,---,0.00,VWS V13.01,2013-03-15 21:14:00,
2013-03-15 17:19:00,47.7,28.4,29.85,SSW,211,6.9,6.9,47,0.00,,---,0.00,VWS V13.01,2013-03-15 21:19:00,
2013-03-15 17:24:00,47.3,28.6,29.85,SSW,197,8.7,8.7,48,0.00,,---,0.00,VWS V13.01,2013-03-15 21:24:00,
2013-03-15 17:29:00,46.9,28.8,29.85,WSW,237,4.5,6.3,49,0.00,,---,0.00,VWS V13.01,2013-03-15 21:29:00,
2013-03-15 17:34:00,46.9,29.3,29.85,South,191,5.8,6.7,50,0.00,,---,0.00,VWS V13.01,2013-03-15 21:34:00,
2013-03-15 17:39:00,46.8,29.6,29.85,South,187,6.7,7.4,51,0.00,,---,0.00,VWS V13.01,2013-03-15 21:39:00,
2013-03-15 17:44:00,46.8,29.6,29.85,SW,215,6.7,6.7,51,0.00,,---,0.00,VWS V13.01,2013-03-15 21:44:00,
2013-03-15 17:49:00,46.6,29.9,29.85,West,263,6.3,6.7,52,0.00,,---,0.00,VWS V13.01,2013-03-15 21:49:00,
2013-03-15 17:54:00,46.6,29.9,29.85,SSW,200,3.1,5.4,52,0.00,,---,0.00,VWS V13.01,2013-03-15 21:54:00,
2013-03-15 17:59:00,46.8,30.5,29.85,WSW,253,4.0,4.9,53,0.00,,---,0.00,VWS V13.01,2013-03-15 21:59:00,
2013-03-15 18:04:00,47.3,31.0,29.85,WSW,251,3.6,4.0,53,0.00,,---,0.00,VWS V13.01,2013-03-15 22:04:00,
2013-03-15 18:09:00,47.5,31.2,29.85,WNW,301,5.8,5.8,53,0.00,,---,0.00,VWS V13.01,2013-03-15 22:09:00,
2013-03-15 18:14:00,47.8,31.5,29.85,WNW,293,0.0,2.7,53,0.00,,---,0.00,VWS V13.01,2013-03-15 22:14:00,
2013-03-15 18:19:00,47.8,31.5,29.85,West,276,0.0,0.0,53,0.00,,---,0.00,VWS V13.01,2013-03-15 22:19:00,
2013-03-15 18:24:00,47.8,31.5,29.85,WNW,295,4.0,6.3,53,0.00,,---,0.00,VWS V13.01,2013-03-15 22:24:00,
2013-03-15 18:29:00,48.0,31.7,29.85,WSW,242,3.6,4.0,53,0.00,,---,0.00,VWS V13.01,2013-03-15 22:29:00,
2013-03-15 18:34:00,48.2,32.3,29.85,West,266,4.5,4.9,54,0.00,,---,0.00,VWS V13.01,2013-03-15 22:34:00,
2013-03-15 18:39:00,48.2,32.3,29.85,West,265,3.6,3.6,54,0.00,,---,0.00,VWS V13.01,2013-03-15 22:39:00,
2013-03-15 18:44:00,48.2,32.3,29.85,West,267,3.1,3.1,54,0.00,,---,0.00,VWS V13.01,2013-03-15 22:44:00,
2013-03-15 18:49:00,48.0,32.2,29.85,WSW,257,3.1,3.1,54,0.00,,---,0.00,VWS V13.01,2013-03-15 22:49:00,
2013-03-15 18:54:00,47.7,32.3,29.85,WNW,287,3.1,3.6,55,0.00,,---,0.00,VWS V13.01,2013-03-15 22:54:00,
2013-03-15 18:59:00,47.7,32.8,29.85,WNW,292,4.5,4.5,56,0.00,,---,0.00,VWS V13.01,2013-03-15 22:59:00,
2013-03-15 19:04:00,47.7,33.2,29.85,NW,309,2.7,4.0,57,0.00,,---,0.00,VWS V13.01,2013-03-15 23:04:00,
2013-03-15 19:09:00,47.8,33.4,29.85,NW,322,5.4,5.4,57,0.00,,---,0.00,VWS V13.01,2013-03-15 23:09:00,
2013-03-15 19:14:00,47.5,33.0,29.85,NW,309,3.6,3.6,57,0.00,,---,0.00,VWS V13.01,2013-03-15 23:14:00,
2013-03-15 19:19:00,47.5,33.5,29.85,NW,312,3.1,3.6,58,0.00,,---,0.00,VWS V13.01,2013-03-15 23:19:00,
2013-03-15 19:24:00,47.3,33.7,29.85,NW,311,4.0,5.4,59,0.00,,---,0.00,VWS V13.01,2013-03-15 23:24:00,
2013-03-15 19:29:00,47.1,33.5,29.85,NNW,327,4.9,6.3,59,0.00,,---,0.00,VWS V13.01,2013-03-15 23:29:00,
2013-03-15 19:34:00,46.8,33.2,29.85,NW,310,2.7,4.0,59,0.00,,---,0.00,VWS V13.01,2013-03-15 23:34:00,
2013-03-15 19:39:00,46.4,32.9,29.85,WNW,291,3.1,4.9,59,0.00,,---,0.00,VWS V13.01,2013-03-15 23:39:00,
2013-03-15 19:44:00,46.2,33.1,29.82,WNW,291,3.1,4.0,60,0.00,,---,0.00,VWS V13.01,2013-03-15 23:44:00,
2013-03-15 19:49:00,46.2,33.5,29.82,WNW,291,2.7,2.7,61,0.00,,---,0.00,VWS V13.01,2013-03-15 23:49:00,
2013-03-15 19:54:00,46.0,33.8,29.82,NW,305,4.5,4.5,62,0.00,,---,0.00,VWS V13.01,2013-03-15 23:54:00,
2013-03-15 19:59:00,46.2,34.7,29.82,NW,309,0.0,4.0,64,0.00,,---,0.00,VWS V13.01,2013-03-15 23:59:00,
2013-03-15 20:04:00,46.4,35.3,29.82,NW,309,3.1,3.1,65,0.00,,---,0.00,VWS V13.01,2013-03-16 00:04:00,
2013-03-15 20:10:00,46.4,35.3,29.82,NW,322,4.0,5.4,65,0.00,,---,0.00,VWS V13.01,2013-03-16 00:10:00,
2013-03-15 20:15:00,46.4,35.3,29.82,North,356,3.6,5.4,65,0.00,,---,0.00,VWS V13.01,2013-03-16 00:15:00,
2013-03-15 20:20:00,46.2,34.7,29.82,NNW,344,3.6,4.5,64,0.00,,---,0.00,VWS V13.01,2013-03-16 00:20:00,
2013-03-15 20:25:00,46.4,34.9,29.82,North,351,4.0,4.5,64,0.00,,---,0.00,VWS V13.01,2013-03-16 00:25:00,
2013-03-15 20:30:00,46.4,34.9,29.82,North,351,3.6,4.0,64,0.00,,---,0.00,VWS V13.01,2013-03-16 00:30:00,
2013-03-15 20:35:00,46.2,34.7,29.82,NNW,342,4.0,4.0,64,0.00,,---,0.00,VWS V13.01,2013-03-16 00:35:00,
2013-03-15 20:40:00,46.2,34.3,29.85,North,9,4.0,4.0,63,0.00,,---,0.00,VWS V13.01,2013-03-16 00:40:00,
2013-03-15 20:45:00,46.0,34.2,29.85,North,356,3.1,4.0,63,0.00,,---,0.00,VWS V13.01,2013-03-16 00:45:00,
2013-03-15 20:50:00,45.7,33.8,29.85,NNW,341,2.7,3.1,63,0.00,,---,0.00,VWS V13.01,2013-03-16 00:50:00,
2013-03-15 20:55:00,45.5,34.0,29.85,NNW,347,4.5,4.5,64,0.00,,---,0.00,VWS V13.01,2013-03-16 00:55:00,
2013-03-15 21:00:00,45.5,34.0,29.85,NNW,341,3.6,3.6,64,0.00,,---,0.00,VWS V13.01,2013-03-16 01:00:00,
2013-03-15 21:05:00,45.5,34.4,29.85,NNW,341,4.0,4.0,65,0.00,,---,0.00,VWS V13.01,2013-03-16 01:05:00,
2013-03-15 21:10:00,45.5,34.4,29.82,NNW,336,3.1,4.0,65,0.04,,---,0.04,VWS V13.01,2013-03-16 01:10:00,
2013-03-15 21:15:00,45.5,34.4,29.82,North,356,4.9,5.4,65,0.04,,---,0.04,VWS V13.01,2013-03-16 01:15:00,
2013-03-15 21:20:00,45.7,34.6,29.82,NNW,347,5.4,5.8,65,0.04,,---,0.04,VWS V13.01,2013-03-16 01:20:00,
2013-03-15 21:25:00,45.7,34.2,29.82,North,8,6.7,6.7,64,0.04,,---,0.04,VWS V13.01,2013-03-16 01:25:00,
2013-03-15 21:30:00,45.5,34.0,29.82,NNE,17,3.6,5.8,64,0.04,,---,0.04,VWS V13.01,2013-03-16 01:30:00,
2013-03-15 21:35:00,45.3,33.9,29.82,North,8,4.0,4.5,64,0.04,,---,0.04,VWS V13.01,2013-03-16 01:35:00,
2013-03-15 21:40:00,45.1,33.7,29.82,North,356,3.1,4.9,64,0.04,,---,0.04,VWS V13.01,2013-03-16 01:40:00,
2013-03-15 21:45:00,45.1,34.1,29.82,NNW,345,4.5,5.4,65,0.04,,---,0.04,VWS V13.01,2013-03-16 01:45:00,
2013-03-15 21:50:00,45.3,34.6,29.82,North,2,4.0,4.0,66,0.04,,---,0.04,VWS V13.01,2013-03-16 01:50:00,
2013-03-15 21:55:00,45.3,34.6,29.82,North,0,5.8,5.8,66,0.04,,---,0.04,VWS V13.01,2013-03-16 01:55:00,
2013-03-15 22:00:00,45.3,34.6,29.82,North,6,6.7,6.7,66,0.04,,---,0.04,VWS V13.01,2013-03-16 02:00:00,
2013-03-15 22:05:00,45.3,34.3,29.82,NNW,336,4.5,5.4,65,0.04,,---,0.04,VWS V13.01,2013-03-16 02:05:00,
2013-03-15 22:10:00,45.1,34.1,29.82,NNW,346,4.5,4.9,65,0.00,,---,0.04,VWS V13.01,2013-03-16 02:10:00,
2013-03-15 22:15:00,45.1,34.1,29.82,North,351,5.8,5.8,65,0.00,,---,0.04,VWS V13.01,2013-03-16 02:15:00,
2013-03-15 22:20:00,44.8,33.8,29.82,North,351,4.5,5.4,65,0.00,,---,0.04,VWS V13.01,2013-03-16 02:20:00,
2013-03-15 22:25:00,45.0,34.3,29.82,NNW,347,4.0,6.7,66,0.00,,---,0.04,VWS V13.01,2013-03-16 02:25:00,
2013-03-15 22:30:00,45.1,34.5,29.82,North,356,3.1,5.4,66,0.00,,---,0.04,VWS V13.01,2013-03-16 02:30:00,
2013-03-15 22:35:00,45.3,34.3,29.82,North,351,4.5,5.4,65,0.00,,---,0.04,VWS V13.01,2013-03-16 02:35:00,
2013-03-15 22:40:00,45.1,34.1,29.79,North,356,6.9,6.9,65,0.00,,---,0.04,VWS V13.01,2013-03-16 02:40:00,
2013-03-15 22:45:00,45.0,33.5,29.79,NNW,336,3.1,4.5,64,0.00,,---,0.04,VWS V13.01,2013-03-16 02:45:00,
2013-03-15 22:50:00,44.8,33.4,29.79,NNW,345,4.0,5.4,64,0.00,,---,0.04,VWS V13.01,2013-03-16 02:50:00,
2013-03-15 22:55:00,44.1,32.3,29.79,North,351,3.6,4.0,63,0.00,,---,0.04,VWS V13.01,2013-03-16 02:55:00,
2013-03-15 23:00:00,43.7,32.7,29.79,NNW,335,3.1,3.6,65,0.00,,---,0.04,VWS V13.01,2013-03-16 03:00:00,
2013-03-15 23:05:00,43.5,33.3,29.79,North,351,4.0,4.5,67,0.00,,---,0.04,VWS V13.01,2013-03-16 03:05:00,
2013-03-15 23:10:00,43.5,33.7,29.82,NNW,338,2.7,5.4,68,0.00,,---,0.04,VWS V13.01,2013-03-16 03:10:00,
2013-03-15 23:15:00,43.5,34.0,29.82,North,0,4.5,5.4,69,0.00,,---,0.04,VWS V13.01,2013-03-16 03:15:00,
2013-03-15 23:20:00,43.3,33.9,29.82,North,351,5.4,5.4,69,0.00,,---,0.04,VWS V13.01,2013-03-16 03:20:00,
2013-03-15 23:25:00,43.5,34.0,29.82,North,351,4.5,4.5,69,0.00,,---,0.04,VWS V13.01,2013-03-16 03:25:00,
2013-03-15 23:30:00,43.5,34.4,29.82,North,351,4.9,5.4,70,0.00,,---,0.04,VWS V13.01,2013-03-16 03:30:00,
2013-03-15 23:35:00,43.5,34.4,29.82,NW,315,4.0,4.5,70,0.00,,---,0.04,VWS V13.01,2013-03-16 03:35:00,
2013-03-15 23:40:00,43.3,33.9,29.82,North,356,5.4,5.8,69,0.00,,---,0.04,VWS V13.01,2013-03-16 03:40:00,
2013-03-15 23:45:00,43.2,33.7,29.82,NNW,342,0.0,3.1,69,0.00,,---,0.04,VWS V13.01,2013-03-16 03:45:00,
2013-03-15 23:50:00,43.2,33.7,29.82,NNW,342,0.0,0.0,69,0.00,,---,0.04,VWS V13.01,2013-03-16 03:50:00,
2013-03-15 23:55:00,43.2,34.0,29.82,NW,325,0.0,0.0,70,0.00,,---,0.04,VWS V13.01,2013-03-16 03:55:00,